createdAt,value
2022-10-22T00:01:03.431Z,98679.53
2022-10-22T00:03:30.033Z,98683.81
2022-10-22T00:05:56.620Z,98679.53
2022-10-22T00:08:23.269Z,98677.81
2022-10-22T00:10:49.958Z,98686.53
2022-10-22T00:13:16.668Z,98683.97
2022-10-22T00:15:43.261Z,98696.22
2022-10-22T00:18:09.824Z,98689.34
2022-10-22T00:20:36.435Z,98695.47
2022-10-22T00:23:03.143Z,98700.84
2022-10-22T00:25:29.714Z,98707.84
2022-10-22T00:27:56.273Z,98716.56
2022-10-22T00:30:22.798Z,98717.44
2022-10-22T00:32:49.589Z,98722.78
2022-10-22T00:35:16.387Z,98725.50
2022-10-22T00:37:42.929Z,98733.38
2022-10-22T00:40:10.454Z,98742.91
2022-10-22T00:42:37.059Z,98743.06
2022-10-22T00:47:54.687Z,98749.34
2022-10-22T00:53:08.517Z,98754.97
2022-10-22T00:55:35.586Z,98756.75
2022-10-22T00:58:02.620Z,98764.75
2022-10-22T01:00:29.608Z,98762.25
2022-10-22T01:02:57.674Z,98772.81
2022-10-22T01:05:29.149Z,98766.81
2022-10-22T01:07:55.921Z,98771.22
2022-10-22T01:10:53.046Z,98773.22
2022-10-22T01:16:15.025Z,98778.44
2022-10-22T01:21:46.226Z,98795.06
2022-10-22T01:27:20.269Z,98802.25
2022-10-22T01:29:51.891Z,98796.53
2022-10-22T01:32:23.168Z,98803.09
2022-10-22T01:34:54.570Z,98812.66
2022-10-22T01:37:26.840Z,98806.63
2022-10-22T01:39:54.288Z,98816.22
2022-10-22T01:42:21.230Z,98813.66
2022-10-22T01:44:50.251Z,98818.88
2022-10-22T01:50:10.422Z,98821.59
2022-10-22T01:53:16.757Z,98833.91
2022-10-22T01:56:09.644Z,98823.56
2022-10-22T01:58:48.787Z,98822.50
2022-10-22T02:06:33.908Z,98830.13
2022-10-22T02:09:02.479Z,98838.72
2022-10-22T02:11:29.749Z,98834.38
2022-10-22T02:13:59.817Z,98840.25
2022-10-22T02:16:34.345Z,98839.28
2022-10-22T02:19:05.853Z,98839.19
2022-10-22T02:21:32.550Z,98835.69
2022-10-22T02:23:59.190Z,98838.28
2022-10-22T02:26:34.681Z,98849.59
2022-10-22T02:31:41.719Z,98853.16
2022-10-22T02:34:14.685Z,98856.63
2022-10-22T02:36:46.762Z,98860.00
2022-10-22T02:41:49.393Z,98867.75
2022-10-22T02:44:16.248Z,98877.22
2022-10-22T02:46:43.645Z,98876.25
2022-10-22T02:49:10.174Z,98882.22
2022-10-22T02:51:36.766Z,98879.59
2022-10-22T02:54:03.629Z,98889.09
2022-10-22T02:56:30.182Z,98887.31
2022-10-22T02:58:56.778Z,98897.72
2022-10-22T03:01:23.393Z,98904.72
2022-10-22T03:03:50.231Z,98895.22
2022-10-22T03:06:16.875Z,98907.31
2022-10-22T03:08:43.710Z,98908.97
2022-10-22T03:11:10.443Z,98913.22
2022-10-22T03:13:38.045Z,98911.41
2022-10-22T03:16:04.802Z,98925.25
2022-10-22T03:18:31.374Z,98926.94
2022-10-22T03:21:04.501Z,98929.44
2022-10-22T03:23:32.069Z,98928.53
2022-10-22T03:28:31.163Z,98945.84
2022-10-22T03:30:57.725Z,98937.13
2022-10-22T03:33:24.279Z,98945.00
2022-10-22T03:35:50.851Z,98951.03
2022-10-22T03:38:17.510Z,98950.13
2022-10-22T03:40:46.206Z,98953.66
2022-10-22T03:43:13.287Z,98962.31
2022-10-22T03:45:39.937Z,98981.38
2022-10-22T03:48:06.579Z,98982.28
2022-10-22T03:50:33.254Z,98977.97
2022-10-22T03:52:59.790Z,98976.25
2022-10-22T03:55:26.593Z,98993.59
2022-10-22T03:57:53.215Z,98995.34
2022-10-22T04:00:20.125Z,99006.63
2022-10-22T04:02:46.803Z,99012.69
2022-10-22T04:07:41.077Z,99021.31
2022-10-22T04:10:08.240Z,99022.22
2022-10-22T04:12:35.175Z,99021.41
2022-10-22T04:15:01.756Z,99021.59
2022-10-22T04:17:34.587Z,99026.97
2022-10-22T04:20:01.393Z,99031.44
2022-10-22T04:22:28.018Z,99033.34
2022-10-22T04:24:54.632Z,99036.94
2022-10-22T04:27:21.189Z,99043.09
2022-10-22T04:29:47.773Z,99036.28
2022-10-22T04:32:14.426Z,99041.63
2022-10-22T04:34:41.070Z,99041.72
2022-10-22T04:37:07.686Z,99036.63
2022-10-22T04:39:34.255Z,99041.06
2022-10-22T04:42:00.896Z,99038.69
2022-10-22T04:44:27.513Z,99046.56
2022-10-22T04:46:54.261Z,99056.19
2022-10-22T04:49:20.940Z,99058.03
2022-10-22T04:51:47.513Z,99060.72
2022-10-22T04:54:15.005Z,99064.31
2022-10-22T04:56:41.906Z,99070.50
2022-10-22T04:59:10.834Z,99076.69
2022-10-22T05:01:42.824Z,99083.66
2022-10-22T05:04:13.725Z,99081.22
2022-10-22T05:06:40.675Z,99081.31
2022-10-22T05:09:12.180Z,99083.97
2022-10-22T05:11:41.923Z,99089.22
2022-10-22T05:14:10.189Z,99085.00
2022-10-22T05:16:38.173Z,99094.59
2022-10-22T05:19:05.778Z,99092.09
2022-10-22T05:21:32.944Z,99096.47
2022-10-22T05:24:00.003Z,99088.81
2022-10-22T05:26:28.392Z,99098.34
2022-10-22T05:28:55.383Z,99104.44
2022-10-22T05:31:22.153Z,99114.91
2022-10-22T05:33:48.968Z,99107.19
2022-10-22T05:36:18.884Z,99111.59
2022-10-22T05:38:45.693Z,99110.31
2022-10-22T05:41:15.574Z,99119.53
2022-10-22T05:43:42.446Z,99123.88
2022-10-22T05:46:12.575Z,99121.31
2022-10-22T05:48:39.809Z,99124.81
2022-10-22T05:51:09.097Z,99122.25
2022-10-22T05:53:37.819Z,99133.56
2022-10-22T05:56:07.483Z,99137.97
2022-10-22T05:58:35.013Z,99147.50
2022-10-22T06:01:19.830Z,99152.72
2022-10-22T06:03:47.434Z,99157.19
2022-10-22T06:09:15.040Z,99169.47
2022-10-22T06:11:41.686Z,99173.81
2022-10-22T06:14:10.025Z,99166.94
2022-10-22T06:16:37.029Z,99173.88
2022-10-22T06:19:04.358Z,99184.28
2022-10-22T06:21:32.638Z,99186.03
2022-10-22T06:24:00.644Z,99190.41
2022-10-22T06:26:27.559Z,99190.47
2022-10-22T06:28:56.101Z,99194.78
2022-10-22T06:31:23.362Z,99203.47
2022-10-22T06:33:49.973Z,99212.16
2022-10-22T06:36:19.506Z,99208.72
2022-10-22T06:38:46.126Z,99220.91
2022-10-22T06:41:15.513Z,99215.72
2022-10-22T06:43:45.340Z,99218.34
2022-10-22T06:46:14.877Z,99220.97
2022-10-22T06:48:48.458Z,99226.19
2022-10-22T06:51:15.315Z,99237.47
2022-10-22T06:53:42.068Z,99233.13
2022-10-22T06:56:10.838Z,99238.31
2022-10-22T06:58:37.537Z,99249.56
2022-10-22T07:01:07.170Z,99244.41
2022-10-22T07:03:33.969Z,99256.56
2022-10-22T07:06:02.498Z,99260.81
2022-10-22T07:08:29.757Z,99272.91
2022-10-22T07:10:56.951Z,99263.41
2022-10-22T07:13:24.183Z,99266.00
2022-10-22T07:15:55.165Z,99280.72
2022-10-22T07:18:22.369Z,99281.63
2022-10-22T07:20:49.980Z,99290.22
2022-10-22T07:23:17.300Z,99288.53
2022-10-22T07:25:44.140Z,99288.53
2022-10-22T07:28:11.248Z,99297.19
2022-10-22T07:30:39.286Z,99306.75
2022-10-22T07:33:06.342Z,99315.38
2022-10-22T07:35:34.524Z,99311.00
2022-10-22T07:38:01.658Z,99309.31
2022-10-22T07:40:28.252Z,99315.38
2022-10-22T07:42:54.843Z,99324.88
2022-10-22T07:45:21.703Z,99321.34
2022-10-22T07:47:48.736Z,99326.47
2022-10-22T07:50:16.621Z,99334.09
2022-10-22T07:52:43.645Z,99337.44
2022-10-22T07:55:10.502Z,99342.47
2022-10-22T07:57:37.360Z,99347.47
2022-10-22T08:00:06.919Z,99344.59
2022-10-22T08:02:33.690Z,99358.31
2022-10-22T08:05:00.262Z,99354.75
2022-10-22T08:09:58.704Z,99364.78
2022-10-22T08:12:25.648Z,99368.47
2022-10-22T08:14:52.250Z,99378.69
2022-10-22T08:17:18.850Z,99376.84
2022-10-22T08:19:45.442Z,99387.16
2022-10-22T08:22:12.026Z,99393.63
2022-10-22T08:24:38.720Z,99391.53
2022-10-22T08:27:05.417Z,99399.03
2022-10-22T08:29:31.937Z,99398.16
2022-10-22T08:31:58.481Z,99397.53
2022-10-22T08:34:25.101Z,99398.72
2022-10-22T08:36:51.628Z,99406.00
2022-10-22T08:39:18.177Z,99406.41
2022-10-22T08:42:03.790Z,99405.63
2022-10-22T08:49:50.709Z,99414.47
2022-10-22T08:52:19.947Z,99417.16
2022-10-22T09:08:45.855Z,99425.97
2022-10-22T09:13:49.293Z,99435.34
2022-10-22T09:24:13.165Z,99439.03
2022-10-22T09:26:41.324Z,99444.16
2022-10-22T09:29:17.119Z,99441.09
2022-10-22T09:31:44.011Z,99450.44
2022-10-22T09:34:14.943Z,99455.66
2022-10-22T09:36:41.810Z,99448.88
2022-10-22T09:39:25.968Z,99455.53
2022-10-22T09:41:52.636Z,99461.47
2022-10-22T09:44:20.273Z,99460.22
2022-10-22T09:46:46.972Z,99469.91
2022-10-22T09:49:18.201Z,99467.38
2022-10-22T09:51:52.315Z,99466.31
2022-10-22T09:57:03.107Z,99471.25
2022-10-22T09:59:33.704Z,99469.03
2022-10-22T10:02:20.391Z,99472.28
2022-10-22T10:05:02.993Z,99477.47
2022-10-22T10:07:33.036Z,99487.25
2022-10-22T10:09:59.850Z,99484.94
2022-10-22T10:12:52.687Z,99490.88
2022-10-22T10:15:43.053Z,99500.78
2022-10-22T10:31:33.276Z,99487.94
2022-10-22T10:37:12.975Z,99493.94
2022-10-22T10:42:36.644Z,99512.00
2022-10-22T10:53:39.042Z,99521.50
2022-10-22T10:56:32.615Z,99523.59
2022-10-22T11:01:53.297Z,99521.06
2022-10-22T11:04:45.334Z,99525.88
2022-10-22T11:07:33.551Z,99522.31
2022-10-22T11:10:09.955Z,99524.31
2022-10-22T11:12:41.864Z,99518.16
2022-10-22T11:17:55.447Z,99527.09
2022-10-22T11:20:46.753Z,99536.94
2022-10-22T11:23:22.175Z,99533.31
2022-10-22T11:25:50.472Z,99532.84
2022-10-22T11:28:38.015Z,99535.53
2022-10-22T11:31:10.212Z,99536.03
2022-10-22T11:33:45.934Z,99544.28
2022-10-22T11:36:13.609Z,99545.25
2022-10-22T11:38:40.202Z,99530.97
2022-10-22T11:41:12.563Z,99528.25
2022-10-22T11:44:05.800Z,99535.19
2022-10-22T11:46:43.372Z,99534.50
2022-10-22T11:51:47.428Z,99534.06
2022-10-22T11:57:25.451Z,99528.47
2022-10-22T11:59:58.032Z,99527.69
2022-10-22T12:02:41.622Z,99531.56
2022-10-22T12:08:25.837Z,99527.06
2022-10-22T12:13:53.264Z,99530.78
2022-10-22T12:16:32.340Z,99529.22
2022-10-22T12:22:15.459Z,99528.50
2022-10-22T12:24:46.301Z,99528.44
2022-10-22T12:27:22.438Z,99530.22
2022-10-22T12:29:55.120Z,99519.84
2022-10-22T12:32:21.840Z,99530.50
2022-10-22T12:37:21.335Z,99520.00
2022-10-22T12:39:47.867Z,99528.75
2022-10-22T12:42:17.151Z,99514.00
2022-10-22T12:44:45.712Z,99514.31
2022-10-22T12:47:18.603Z,99511.91
2022-10-22T12:49:49.206Z,99511.41
2022-10-22T12:52:22.446Z,99516.03
2022-10-22T12:54:52.497Z,99521.25
2022-10-22T12:57:21.249Z,99522.09
2022-10-22T12:59:50.728Z,99518.47
2022-10-22T13:07:52.126Z,99525.50
2022-10-22T13:10:31.382Z,99514.16
2022-10-22T13:12:59.078Z,99524.16
2022-10-22T13:15:37.619Z,99522.47
2022-10-22T13:18:07.614Z,99523.81
2022-10-22T13:20:37.480Z,99525.00
2022-10-22T13:23:06.253Z,99521.84
2022-10-22T13:25:35.156Z,99521.25
2022-10-22T13:28:18.319Z,99522.25
2022-10-22T13:30:55.782Z,99517.34
2022-10-22T13:33:33.385Z,99524.31
2022-10-22T13:36:00.636Z,99527.84
2022-10-22T13:38:28.686Z,99521.81
2022-10-22T13:40:56.575Z,99511.44
2022-10-22T13:43:25.162Z,99518.59
2022-10-22T13:45:55.898Z,99517.72
2022-10-22T13:48:25.052Z,99518.84
2022-10-22T13:50:52.907Z,99518.13
2022-10-22T13:53:23.199Z,99515.56
2022-10-22T13:55:50.438Z,99518.38
2022-10-22T13:58:21.249Z,99521.03
2022-10-22T14:00:51.699Z,99522.03
2022-10-22T14:03:21.583Z,99526.38
2022-10-22T14:05:49.111Z,99524.53
2022-10-22T14:08:21.984Z,99521.91
2022-10-22T14:10:48.781Z,99524.41
2022-10-22T14:13:18.523Z,99514.69
2022-10-22T14:15:47.119Z,99515.28
2022-10-22T14:18:24.196Z,99524.28
2022-10-22T14:20:53.862Z,99518.00
2022-10-22T14:23:20.897Z,99518.53
2022-10-22T14:25:48.251Z,99516.16
2022-10-22T14:28:14.800Z,99515.16
2022-10-22T14:30:41.666Z,99519.47
2022-10-22T14:35:51.239Z,99508.97
2022-10-22T14:38:18.191Z,99517.88
2022-10-22T14:40:46.354Z,99521.28
2022-10-22T14:43:18.514Z,99520.41
2022-10-22T14:45:45.073Z,99514.47
2022-10-22T14:48:11.641Z,99512.75
2022-10-22T14:50:38.281Z,99513.66
2022-10-22T14:53:05.061Z,99505.97
2022-10-22T14:55:31.597Z,99506.84
2022-10-22T14:57:58.198Z,99503.47
2022-10-22T15:00:24.812Z,99506.19
2022-10-22T15:02:51.523Z,99518.53
2022-10-22T15:05:18.191Z,99508.94
2022-10-22T15:07:45.563Z,99508.16
2022-10-22T15:10:12.309Z,99520.44
2022-10-22T15:12:38.994Z,99525.81
2022-10-22T15:15:06.463Z,99525.09
2022-10-22T15:17:33.040Z,99523.50
2022-10-22T15:20:03.990Z,99532.34
2022-10-22T15:22:32.042Z,99521.34
2022-10-22T15:24:58.777Z,99527.53
2022-10-22T15:27:25.356Z,99526.81
2022-10-22T15:29:52.056Z,99527.91
2022-10-22T15:32:18.653Z,99530.56
2022-10-22T15:34:45.297Z,99525.50
2022-10-22T15:37:13.518Z,99522.97
2022-10-22T15:39:41.099Z,99530.94
2022-10-22T15:42:08.787Z,99527.50
2022-10-22T15:44:35.550Z,99531.91
2022-10-22T15:47:05.005Z,99525.94
2022-10-22T15:49:31.596Z,99525.06
2022-10-22T15:51:58.134Z,99536.50
2022-10-22T15:54:28.619Z,99534.81
2022-10-22T15:56:57.634Z,99531.38
2022-10-22T15:59:24.814Z,99534.97
2022-10-22T16:01:51.879Z,99531.53
2022-10-22T16:04:18.641Z,99530.84
2022-10-22T16:06:48.454Z,99525.88
2022-10-22T16:09:18.557Z,99530.34
2022-10-22T16:11:45.548Z,99527.81
2022-10-22T16:14:14.749Z,99519.28
2022-10-22T16:16:45.366Z,99516.81
2022-10-22T16:19:13.304Z,99518.75
2022-10-22T16:21:40.636Z,99530.25
2022-10-22T16:24:08.881Z,99530.34
2022-10-22T16:26:36.423Z,99527.06
2022-10-22T16:29:04.190Z,99514.16
2022-10-22T16:31:31.207Z,99521.25
2022-10-22T16:33:58.478Z,99519.66
2022-10-22T16:36:25.550Z,99520.63
2022-10-22T16:38:52.201Z,99522.59
2022-10-22T16:41:21.115Z,99522.78
2022-10-22T16:43:49.611Z,99516.78
2022-10-22T16:46:17.866Z,99526.56
2022-10-22T16:48:48.418Z,99523.22
2022-10-22T16:51:18.355Z,99522.53
2022-10-22T16:53:45.313Z,99517.53
2022-10-22T16:56:13.815Z,99528.19
2022-10-22T16:58:47.297Z,99533.72
2022-10-22T17:01:17.842Z,99532.97
2022-10-22T17:03:45.529Z,99528.88
2022-10-22T17:06:12.542Z,99536.00
2022-10-22T17:08:40.645Z,99532.78
2022-10-22T17:11:09.307Z,99527.75
2022-10-22T17:13:36.229Z,99527.97
2022-10-22T17:16:05.058Z,99524.63
2022-10-22T17:18:32.177Z,99534.38
2022-10-22T17:20:58.748Z,99537.03
2022-10-22T17:23:28.518Z,99528.34
2022-10-22T17:25:59.649Z,99543.84
2022-10-22T17:28:26.459Z,99544.47
2022-10-22T17:31:16.712Z,99544.56
2022-10-22T17:33:43.997Z,99539.16
2022-10-22T17:36:12.834Z,99544.47
2022-10-22T17:38:41.532Z,99549.69
2022-10-22T17:41:12.551Z,99546.28
2022-10-22T17:43:41.563Z,99547.13
2022-10-22T17:46:11.411Z,99547.97
2022-10-22T17:48:37.992Z,99551.50
2022-10-22T17:51:09.130Z,99545.41
2022-10-22T17:53:38.239Z,99547.19
2022-10-22T17:56:10.282Z,99560.09
2022-10-22T17:58:37.771Z,99559.28
2022-10-22T18:01:05.379Z,99558.50
2022-10-22T18:03:33.352Z,99556.72
2022-10-22T18:06:08.817Z,99560.22
2022-10-22T18:08:35.752Z,99556.63
2022-10-22T18:11:07.866Z,99564.53
2022-10-22T18:13:34.800Z,99564.53
2022-10-22T18:16:01.470Z,99560.09
2022-10-22T18:18:28.825Z,99561.94
2022-10-22T18:20:56.696Z,99561.06
2022-10-22T18:23:23.306Z,99566.28
2022-10-22T18:25:50.050Z,99568.09
2022-10-22T18:28:17.835Z,99566.31
2022-10-22T18:30:45.365Z,99574.34
2022-10-22T18:33:14.028Z,99577.84
2022-10-22T18:35:42.237Z,99578.97
2022-10-22T18:38:10.132Z,99578.13
2022-10-22T18:40:44.205Z,99577.31
2022-10-22T18:43:10.769Z,99564.28
2022-10-22T18:45:42.150Z,99565.16
2022-10-22T18:48:08.773Z,99565.25
2022-10-22T18:50:35.365Z,99561.84
2022-10-22T18:53:02.077Z,99566.22
2022-10-22T18:55:28.610Z,99571.56
2022-10-22T18:57:55.174Z,99569.94
2022-10-22T19:00:21.702Z,99569.81
2022-10-22T19:02:48.375Z,99576.06
2022-10-22T19:05:14.976Z,99566.66
2022-10-22T19:07:41.850Z,99564.72
2022-10-22T19:10:08.762Z,99570.81
2022-10-22T19:12:35.582Z,99570.84
2022-10-22T19:15:02.186Z,99573.69
2022-10-22T19:17:28.711Z,99570.09
2022-10-22T19:19:55.277Z,99578.72
2022-10-22T19:22:21.949Z,99575.31
2022-10-22T19:24:49.873Z,99576.06
2022-10-22T19:27:17.804Z,99572.78
2022-10-22T19:29:45.888Z,99571.09
2022-10-22T19:32:13.102Z,99565.69
2022-10-22T19:34:41.133Z,99562.34
2022-10-22T19:37:08.272Z,99566.59
2022-10-22T19:39:34.954Z,99564.00
2022-10-22T19:42:01.686Z,99558.75
2022-10-22T19:44:28.397Z,99559.75
2022-10-22T19:46:54.893Z,99563.25
2022-10-22T19:49:22.985Z,99554.78
2022-10-22T19:51:49.842Z,99563.31
2022-10-22T19:54:18.633Z,99559.78
2022-10-22T19:56:46.744Z,99556.41
2022-10-22T19:59:15.576Z,99561.69
2022-10-22T20:01:42.219Z,99558.16
2022-10-22T20:04:13.840Z,99560.66
2022-10-22T20:06:40.426Z,99560.66
2022-10-22T20:09:07.211Z,99564.97
2022-10-22T20:11:33.822Z,99567.53
2022-10-22T20:14:00.395Z,99567.44
2022-10-22T20:16:30.081Z,99571.78
2022-10-22T20:19:02.846Z,99580.59
2022-10-22T20:21:29.869Z,99577.97
2022-10-22T20:23:57.467Z,99569.16
2022-10-22T20:26:27.842Z,99563.19
2022-10-22T20:28:56.532Z,99564.81
2022-10-22T20:31:25.093Z,99570.00
2022-10-22T20:33:51.926Z,99571.00
2022-10-22T20:36:21.089Z,99566.59
2022-10-22T20:38:48.357Z,99571.78
2022-10-22T20:41:19.481Z,99571.88
2022-10-22T20:43:48.131Z,99567.53
2022-10-22T20:46:22.423Z,99569.31
2022-10-22T20:48:53.317Z,99573.59
2022-10-22T20:51:20.061Z,99571.78
2022-10-22T20:53:46.941Z,99584.94
2022-10-22T20:56:14.009Z,99575.38
2022-10-22T20:58:46.173Z,99575.38
2022-10-22T21:01:18.540Z,99578.72
2022-10-22T21:03:45.997Z,99585.56
2022-10-22T21:06:12.675Z,99588.25
2022-10-22T21:08:39.303Z,99577.00
2022-10-22T21:11:06.048Z,99580.44
2022-10-22T21:13:33.290Z,99579.69
2022-10-22T21:15:59.968Z,99582.31
2022-10-22T21:18:26.994Z,99580.56
2022-10-22T21:20:53.537Z,99586.59
2022-10-22T21:23:20.061Z,99583.13
2022-10-22T21:25:56.053Z,99587.53
2022-10-22T21:28:22.939Z,99585.81
2022-10-22T21:30:49.499Z,99587.53
2022-10-22T21:33:16.097Z,99591.91
2022-10-22T21:35:58.302Z,99588.53
2022-10-22T21:38:25.901Z,99585.19
2022-10-22T21:40:53.101Z,99589.44
2022-10-22T21:43:19.982Z,99585.25
2022-10-22T21:45:46.825Z,99587.72
2022-10-22T21:48:14.275Z,99592.97
2022-10-22T21:50:42.643Z,99585.09
2022-10-22T21:53:11.076Z,99587.75
2022-10-22T21:55:39.626Z,99576.47
2022-10-22T21:58:06.818Z,99580.72
2022-10-22T22:00:34.610Z,99585.06
2022-10-22T22:03:01.174Z,99583.41
2022-10-22T22:05:28.746Z,99584.16
2022-10-22T22:07:55.325Z,99580.66
2022-10-22T22:10:22.643Z,99576.31
2022-10-22T22:12:51.313Z,99576.34
2022-10-22T22:15:19.386Z,99595.47
2022-10-22T22:17:46.058Z,99580.69
2022-10-22T22:20:12.717Z,99578.09
2022-10-22T22:22:39.457Z,99573.00
2022-10-22T22:25:06.423Z,99564.00
2022-10-22T22:27:33.497Z,99570.63
2022-10-22T22:30:00.006Z,99577.44
2022-10-22T22:32:26.566Z,99562.56
2022-10-22T22:34:53.152Z,99562.41
2022-10-22T22:37:19.759Z,99564.97
2022-10-22T22:39:46.305Z,99564.84
2022-10-22T22:42:12.859Z,99570.09
2022-10-22T22:44:39.372Z,99566.59
2022-10-22T22:47:06.032Z,99570.00
2022-10-22T22:49:32.951Z,99562.16
2022-10-22T22:51:59.570Z,99557.06
2022-10-22T22:54:26.259Z,99544.09
2022-10-22T22:56:52.772Z,99553.59
2022-10-22T22:59:19.298Z,99557.06
2022-10-22T23:01:48.600Z,99545.00
2022-10-22T23:04:22.644Z,99546.72
2022-10-22T23:06:50.199Z,99546.72
2022-10-22T23:09:17.996Z,99555.41
2022-10-22T23:11:45.838Z,99547.53
2022-10-22T23:14:14.920Z,99555.25
2022-10-22T23:16:46.101Z,99552.63
2022-10-22T23:19:15.971Z,99545.72
2022-10-22T23:21:45.794Z,99543.47
2022-10-22T23:24:15.812Z,99534.53
2022-10-22T23:26:45.585Z,99537.13
2022-10-22T23:31:55.864Z,99525.72
2022-10-22T23:34:25.052Z,99528.34
2022-10-22T23:36:52.419Z,99525.84
2022-10-22T23:39:22.922Z,99526.69
2022-10-22T23:41:49.884Z,99531.03
2022-10-22T23:44:16.473Z,99528.44
2022-10-22T23:46:43.318Z,99518.88
2022-10-22T23:49:10.790Z,99514.53
2022-10-22T23:51:38.032Z,99516.28
2022-10-22T23:54:07.833Z,99516.28
2022-10-22T23:56:34.851Z,99513.16
2022-10-22T23:59:01.837Z,99509.34
